Flight Track Log - Related Links

Times and Time Zones

All times are in EDT time to prevent confusion due to time zone crossing. See the UAL780 flight status page for this flight to view local times or setup timezone preferences in your user account.


Time Position Orientation Groundspeed Altitude Reporting Facility
EDT Latitude Longitude Course Direction KTS MPH feet Rate Location/Type
Tue 11:53:09 AM 40.4733 -80.3239 221° Southwest 156 180 4,100  Level Cleveland Center
Tue 11:54:00 AM 40.1578 -80.3075 190° South  Level FlightAware Approximate
Tue 11:54:09 AM 40.3942 -80.3350 186° South 208 239 7,100  Level Cleveland Center
Tue 11:55:00 AM 40.0490 -80.3360 192° South  Level FlightAware Approximate
Tue 11:55:09 AM 40.3128 -80.3408 183° South 246 283 9,700  Level Cleveland Center
Tue 11:56:00 AM 39.9411 -80.3696 194° South  Level FlightAware Approximate
Tue 11:56:09 AM 40.2233 -80.3519 185° South 335 386 11,400  Level Cleveland Center
Tue 11:57:00 AM 39.8407 -80.4274 221° Southwest  Level FlightAware Approximate
Tue 11:57:09 AM 40.1461 -80.3983 205° Southwest 340 391 13,900  Level Cleveland Center
Tue 11:58:00 AM 39.7573 -80.5227 221° Southwest  Level FlightAware Approximate
Tue 11:58:09 AM 40.0589 -80.4692 212° Southwest 353 406 16,300  Level Cleveland Center
Tue 11:59:09 AM 39.9672 -80.5425 212° Southwest 374 430 18,000 2,100 Climbing Cleveland Center
Tue 12:00:09 PM 39.8586 -80.6289 211° Southwest 395 455 20,500 1,813 Climbing Cleveland Center
Tue 12:02:21 PM 39.6447 -80.7925 211° Southwest 431 496 23,800 1,492 Climbing Indianapolis Center
Tue 12:03:22 PM 39.5353 -80.8767 211° Southwest 451 519 25,300 1,366 Climbing Indianapolis Center
Tue 12:04:24 PM 39.4264 -80.9706 214° Southwest 467 537 26,600 1,452 Climbing Indianapolis Center
Tue 12:05:26 PM 39.2950 -81.0858 214° Southwest 476 548 28,300 1,500 Climbing Indianapolis Center
Tue 12:06:28 PM 39.1822 -81.1831 214° Southwest 485 558 29,700 1,317 Climbing Indianapolis Center
Tue 12:07:29 PM 39.0711 -81.2811 214° Southwest 484 557 31,000 1,317 Climbing Indianapolis Center
Tue 12:08:31 PM 38.9600 -81.3775 214° Southwest 483 556 32,400 968 Climbing Indianapolis Center
Tue 12:09:33 PM 38.8492 -81.4736 214° Southwest 482 555 33,000 293 Climbing Indianapolis Center
Tue 12:10:34 PM 38.7389 -81.5678 214° Southwest 480 552 33,000 683 Level Indianapolis Center
Tue 12:11:36 PM 38.6122 -81.6767 214° Southwest 483 556 34,400 1,113 Climbing Indianapolis Center
Tue 12:12:38 PM 38.5047 -81.7692 214° Southwest 471 542 35,300 780 Climbing Indianapolis Center
Tue 12:13:39 PM 38.3958 -81.8617 214° Southwest 469 540 36,000 341 Climbing Indianapolis Center
Tue 12:14:41 PM 38.2869 -81.9544 214° Southwest 471 542 36,000  Level Indianapolis Center
Tue 12:15:42 PM 38.1786 -82.0469 214° Southwest 469 540 36,000  Level Indianapolis Center
Tue 12:16:44 PM 38.0694 -82.1383 213° Southwest 470 541 36,000  Level Indianapolis Center
Tue 12:17:46 PM 37.9561 -82.2342 214° Southwest 467 537 36,000  Level Indianapolis Center
Tue 12:18:47 PM 37.8281 -82.3400 213° Southwest 470 541 36,000  Level Indianapolis Center
Tue 12:19:49 PM 37.7186 -82.4289 213° Southwest 469 540 36,000  Level Indianapolis Center
Tue 12:20:50 PM 37.6103 -82.5211 214° Southwest 469 540 36,000  Level Indianapolis Center
Tue 12:21:52 PM 37.5017 -82.6119 214° Southwest 470 541 36,000  Level Indianapolis Center
Tue 12:22:54 PM 37.3931 -82.7008 213° Southwest 465 535 36,000  Level Indianapolis Center
Tue 12:23:55 PM 37.2836 -82.7903 213° Southwest 468 539 36,000  Level Indianapolis Center
Tue 12:24:57 PM 37.1581 -82.8933 213° Southwest 464 534 36,000  Level Indianapolis Center
Tue 12:25:59 PM 37.0511 -82.9822 214° Southwest 464 534 36,000  Level Indianapolis Center
Tue 12:27:00 PM 36.9431 -83.0700 213° Southwest 470 541 36,000  Level Indianapolis Center
Tue 12:28:02 PM 36.8342 -83.1553 212° Southwest 469 540 36,000  Level Indianapolis Center
Tue 12:29:03 PM 36.7253 -83.2431 213° Southwest 469 540 36,000  Level Indianapolis Center
Tue 12:30:05 PM 36.5983 -83.3433 212° Southwest 465 535 36,000  Level Indianapolis Center
Tue 12:30:32 PM 36.5611 -83.3744 214° Southwest 476 548 36,000  Level Atlanta Center
Tue 12:31:07 PM 36.4900 -83.4297 212° Southwest 463 533 36,000  Level Indianapolis Center
Tue 12:32:08 PM 36.3964 -83.5475 225° Southwest 454 522 36,000  Level Indianapolis Center
Tue 12:33:10 PM 36.3286 -83.6744 236° Southwest 442 509 36,000  Level Indianapolis Center
Tue 12:33:32 PM 36.3081 -83.7114 235° Southwest 452 520 36,000  Level Atlanta Center
Tue 12:34:32 PM 36.2333 -83.8533 237° Southwest 446 513 36,000  Level Atlanta Center
Tue 12:35:32 PM 36.1750 -83.9642 237° Southwest 446 513 36,000  Level Atlanta Center
Tue 12:36:32 PM 36.1061 -84.0900 236° Southwest 446 513 36,000  Level Atlanta Center
Tue 12:37:32 PM 36.0353 -84.2211 236° Southwest 446 513 36,000  Level Atlanta Center
Tue 12:38:32 PM 35.9642 -84.3492 236° Southwest 446 513 36,000  Level Atlanta Center
Tue 12:39:32 PM 35.8969 -84.4719 236° Southwest 446 513 36,000  Level Atlanta Center
Tue 12:40:32 PM 35.8256 -84.5997 235° Southwest 446 513 36,000  Level Atlanta Center
Tue 12:41:32 PM 35.7539 -84.7244 235° Southwest 446 513 36,000  Level Atlanta Center
Tue 12:42:32 PM 35.6842 -84.8544 237° Southwest 451 519 36,000  Level Atlanta Center
Tue 12:43:32 PM 35.6125 -84.9839 236° Southwest 456 525 36,000  Level Atlanta Center
Tue 12:44:32 PM 35.5447 -85.1083 236° Southwest 456 525 36,000  Level Atlanta Center
Tue 12:45:32 PM 35.4747 -85.2322 235° Southwest 456 525 36,000  Level Atlanta Center
Tue 12:46:32 PM 35.3981 -85.3686 235° Southwest 456 525 36,000  Level Atlanta Center
Tue 12:47:32 PM 35.3258 -85.4972 235° Southwest 456 525 36,000  Level Atlanta Center
Tue 12:48:32 PM 35.2553 -85.6208 235° Southwest 456 525 36,000  Level Atlanta Center
Tue 12:49:32 PM 35.1847 -85.7464 236° Southwest 456 525 36,000  Level Atlanta Center
Tue 12:50:32 PM 35.1122 -85.8719 235° Southwest 456 525 36,000  Level Atlanta Center
Tue 12:51:32 PM 35.0433 -85.9947 236° Southwest 456 525 36,000  Level Atlanta Center
Tue 12:52:32 PM 34.9725 -86.1172 235° Southwest 456 525 36,000  Level Atlanta Center
Tue 12:53:32 PM 34.9036 -86.2372 235° Southwest 443 510 36,000  Level Atlanta Center
Tue 12:54:32 PM 34.8347 -86.3594 236° Southwest 443 510 36,000  Level Atlanta Center
Tue 12:55:32 PM 34.7633 -86.4811 234° Southwest 443 510 36,000  Level Atlanta Center
Tue 12:56:32 PM 34.6900 -86.6028 234° Southwest 443 510 36,000  Level Atlanta Center
Tue 12:56:56 PM 34.6600 -86.6558 236° Southwest 445 512 36,000  Level Memphis Center
Tue 12:57:56 PM 34.5883 -86.7775 234° Southwest 426 490 36,000  Level Memphis Center
Tue 12:58:56 PM 34.5150 -86.9089 236° Southwest 438 504 36,000  Level Memphis Center
Tue 12:59:56 PM 34.4431 -87.0278 234° Southwest 462 532 36,000  Level Memphis Center
Tue 01:00:56 PM 34.3692 -87.1489 234° Southwest 450 518 36,000  Level Memphis Center
Tue 01:01:56 PM 34.3031 -87.2594 234° Southwest 442 509 36,000  Level Memphis Center
Tue 01:02:56 PM 34.2328 -87.3775 234° Southwest 442 509 36,000  Level Memphis Center
Tue 01:03:56 PM 34.1547 -87.5133 235° Southwest 452 520 36,000  Level Memphis Center
Tue 01:04:56 PM 34.0800 -87.6311 233° Southwest 457 526 36,000  Level Memphis Center
Tue 01:05:56 PM 34.0075 -87.7536 234° Southwest 457 526 36,000  Level Memphis Center
Tue 01:06:56 PM 33.9350 -87.8736 234° Southwest 452 520 36,000  Level Memphis Center
Tue 01:07:56 PM 33.8622 -87.9933 234° Southwest 457 526 36,000  Level Memphis Center
Tue 01:08:56 PM 33.7953 -88.1075 235° Southwest 457 526 36,000  Level Memphis Center
Tue 01:09:56 PM 33.7203 -88.2269 233° Southwest 457 526 36,000  Level Memphis Center
Tue 01:10:56 PM 33.6492 -88.3458 234° Southwest 457 526 36,000  Level Memphis Center
Tue 01:11:56 PM 33.5739 -88.4647 233° Southwest 457 526 36,000  Level Memphis Center
Tue 01:12:56 PM 33.5006 -88.5958 236° Southwest 452 520 36,000  Level Memphis Center
Tue 01:13:56 PM 33.4250 -88.7144 233° Southwest 452 520 36,000  Level Memphis Center
Tue 01:14:56 PM 33.3514 -88.8353 234° Southwest 452 520 36,000  Level Memphis Center
Tue 01:15:56 PM 33.2756 -88.9558 233° Southwest 459 528 36,000  Level Memphis Center
Tue 01:16:56 PM 33.2039 -89.0736 234° Southwest 453 521 36,000  Level Memphis Center
Tue 01:17:56 PM 33.1297 -89.1914 233° Southwest 453 521 36,000  Level Memphis Center
Tue 01:18:56 PM 33.0558 -89.3064 233° Southwest 453 521 36,000  Level Memphis Center
Tue 01:19:56 PM 32.9814 -89.4236 233° Southwest 453 521 36,000  Level Memphis Center
Tue 01:20:56 PM 32.9072 -89.5406 233° Southwest 453 521 36,000  Level Memphis Center
Tue 01:21:56 PM 32.8328 -89.6525 232° Southwest 448 516 36,000  Level Memphis Center
Tue 01:22:56 PM 32.7603 -89.7669 233° Southwest 443 510 36,000  Level Memphis Center
Tue 01:23:56 PM 32.6897 -89.8808 234° Southwest 443 510 36,000  Level Memphis Center
Tue 01:24:56 PM 32.6192 -89.9922 233° Southwest 438 504 36,000  Level Memphis Center
Tue 01:25:56 PM 32.5486 -90.1008 232° Southwest 433 498 36,000  Level Memphis Center
Tue 01:26:56 PM 32.4839 -90.2094 235° Southwest 422 486 36,000  Level Memphis Center
Tue 01:27:56 PM 32.4236 -90.3253 238° Southwest 422 486 36,000  Level Memphis Center
Tue 01:28:56 PM 32.3650 -90.4386 239° Southwest 412 474 36,000 -450 Level Memphis Center
Tue 01:29:56 PM 32.3044 -90.5514 238° Southwest 412 474 35,100 -950 Descending Memphis Center
Tue 01:30:56 PM 32.2456 -90.6669 239° Southwest 412 474 34,100 -550 Descending Memphis Center
Tue 01:31:56 PM 32.1847 -90.7794 237° Southwest 412 474 34,000 -32 Descending Memphis Center
Tue 01:34:04 PM 32.0717 -90.9981 239° Southwest 405 466 34,000  Level Houston Center
Tue 01:35:06 PM 31.9994 -91.1314 237° Southwest 406 467 34,000  Level Houston Center
Tue 01:36:07 PM 31.9411 -91.2428 238° Southwest 404 465 34,000  Level Houston Center
Tue 01:37:09 PM 31.8808 -91.3539 237° Southwest 404 465 34,000  Level Houston Center
Tue 01:38:11 PM 31.8206 -91.4650 237° Southwest 405 466 34,000  Level Houston Center
Tue 01:39:13 PM 31.7633 -91.5758 239° Southwest 400 460 34,000  Level Houston Center
Tue 01:40:15 PM 31.7044 -91.6836 237° Southwest 394 453 34,000  Level Houston Center
Tue 01:41:17 PM 31.6336 -91.8119 237° Southwest 392 451 34,000  Level Houston Center
Tue 01:42:18 PM 31.5764 -91.9189 238° Southwest 389 448 34,000  Level Houston Center
Tue 01:43:20 PM 31.5178 -92.0256 237° Southwest 392 451 34,000  Level Houston Center
Tue 01:44:22 PM 31.4619 -92.1228 236° Southwest 389 448 34,000  Level Houston Center
Tue 01:45:24 PM 31.4053 -92.2300 238° Southwest 390 449 34,000  Level Houston Center
Tue 01:46:26 PM 31.3347 -92.3567 237° Southwest 387 445 34,000  Level Houston Center
Tue 01:47:28 PM 31.2742 -92.4631 236° Southwest 392 451 34,000  Level Houston Center
Tue 01:48:30 PM 31.2175 -92.5694 238° Southwest 388 447 34,000 -48 Level Houston Center
Tue 01:49:32 PM 31.1583 -92.6758 237° Southwest 391 450 33,900 -48 Descending Houston Center
Tue 01:50:34 PM 31.0997 -92.7811 237° Southwest 389 448 33,900 -387 Level Houston Center
Tue 01:51:36 PM 31.0411 -92.8864 237° Southwest 389 448 33,100 -968 Descending Houston Center
Tue 01:52:38 PM 30.9683 -93.0139 236° Southwest 394 453 31,900 -1,073 Descending Houston Center
Tue 01:53:39 PM 30.9069 -93.1222 237° Southwest 401 461 30,900 -976 Descending Houston Center
Tue 01:54:41 PM 30.8450 -93.2331 237° Southwest 408 470 29,900 -968 Descending Houston Center
Tue 01:55:43 PM 30.7847 -93.3400 237° Southwest 400 460 28,900 -968 Descending Houston Center
Tue 01:56:45 PM 30.7242 -93.4469 237° Southwest 398 458 27,900 -968 Descending Houston Center
Tue 01:57:47 PM 30.6642 -93.5517 236° Southwest 396 456 26,900 -1,016 Descending Houston Center
Tue 01:58:49 PM 30.5950 -93.6747 237° Southwest 387 445 25,800 -1,016 Descending Houston Center
Tue 01:59:51 PM 30.5367 -93.7761 236° Southwest 383 441 24,800 -968 Descending Houston Center
Tue 02:00:53 PM 30.4800 -93.8772 237° Southwest 380 437 23,800 -968 Descending Houston Center
Tue 02:01:55 PM 30.4233 -93.9747 236° Southwest 371 427 22,800 -1,355 Descending Houston Center
Tue 02:02:57 PM 30.3567 -94.0900 236° Southwest 363 418 21,000 -2,225 Descending Houston Center
Tue 02:03:24 PM 30.3306 -94.1314 234° Southwest 364 419 19,500 -3,000 Descending Houston Center
Tue 02:03:59 PM 30.2994 -94.1861 237° Southwest 363 418 17,900 -2,722 Descending Houston Center
Tue 02:05:01 PM 30.2483 -94.2761 237° Southwest 339 390 15,100 -1,872 Descending Houston Center
Tue 02:06:04 PM 30.1972 -94.3664 237° Southwest 337 388 14,000 -1,296 Descending Houston Center
Tue 02:07:06 PM 30.1792 -94.4717 259° West 333 383 12,400 -1,839 Descending Houston Center
Tue 02:08:08 PM 30.1597 -94.5878 259° West 329 379 10,200 -1,161 Descending Houston Center
Tue 02:09:10 PM 30.1417 -94.6900 258° West 326 375 10,000 -484 Descending Houston Center
Tue 02:10:12 PM 30.1258 -94.7825 259° West 297 342 9,200 -1,258 Descending Houston Center
Tue 02:11:14 PM 30.1108 -94.8711 259° West 284 327 7,400 -1,500 Descending Houston Center
Tue 02:12:16 PM 30.1067 -94.9794 267° West 284 327 6,100 -629 Descending Houston Center
Tue 02:13:18 PM 30.1061 -95.0686 270° West 280 322 6,100  Level Houston Center
Tue 02:14:21 PM 30.1061 -95.1583 270° West 281 323 6,100  Level Houston Center
Tue 02:15:23 PM 30.1067 -95.2467 270° West 278 320 6,100  Level Houston Center
Tue 02:16:25 PM 30.1069 -95.3356 270° West 278 320 6,100 -242 Level Houston Center
Tue 02:17:27 PM 30.1078 -95.4417 271° West 277 319 5,600 -732 Descending Houston Center
Tue 02:18:28 PM 30.1067 -95.5289 269° West 249 287 4,600 -871 Descending Houston Center
Tue 02:19:31 PM 30.0733 -95.5633 222° Southwest 223 257 3,800 -762 Descending Houston Center

Login

Don't have an account? Register now (free) for customized features, flight alerts, and more!